Altamont, Kansas
Current Conditions -  °F | °C
As of 8:52 AM on Thursday 23 Oct 2014 (Local Time) from KPPF Reporting Station
Overcast Overcast  
Wind Chill: 59°   Ceiling: 3900
Heat Index: 59°   Visibility: 10mi
Dew Point: 58°   Wind: 7mph
Humidity: 96%   Direction: 180°S
Pressure: 30.15"   Gusts: NA
Location:  37.19°N, 95.3°W
Report Text: KPPF 231352Z AUTO 18006KT 10SM BKN039 OVC050 15/14 A3015 RMK AO2 SLP205 T01500144
Loading
Personal Weather Stations






























Interactive Weather Map
Tropical Storm Tracking
New forecast layout! Learn more

10-Day Weather Forecast

Advertisements
Track Severe Weather on mobile